createdAt,value
2018-06-17T00:00:55.910Z,20.40
2018-06-17T00:03:03.177Z,20.30
2018-06-17T00:04:06.915Z,20.30
2018-06-17T00:05:10.563Z,20.30
2018-06-17T00:06:14.284Z,20.20
2018-06-17T00:07:18.027Z,20.20
2018-06-17T00:08:21.699Z,20.20
2018-06-17T00:09:25.440Z,20.20
2018-06-17T00:10:29.082Z,20.20
2018-06-17T00:11:32.815Z,20.20
2018-06-17T00:12:36.473Z,20.20
2018-06-17T00:13:40.248Z,20.00
2018-06-17T00:14:43.839Z,20.00
2018-06-17T00:15:47.458Z,20.10
2018-06-17T00:16:51.137Z,20.10
2018-06-17T00:17:54.810Z,20.10
2018-06-17T00:18:58.423Z,20.20
2018-06-17T00:20:02.046Z,20.20
2018-06-17T00:21:05.709Z,20.10
2018-06-17T00:22:09.357Z,20.20
2018-06-17T00:23:13.016Z,20.20
2018-06-17T00:24:16.673Z,20.20
2018-06-17T00:25:20.359Z,20.20
2018-06-17T00:26:24.008Z,20.20
2018-06-17T00:27:27.740Z,20.20
2018-06-17T00:28:31.427Z,20.20
2018-06-17T00:29:35.174Z,20.20
2018-06-17T00:30:39.841Z,20.20
2018-06-17T00:31:43.647Z,20.10
2018-06-17T00:32:47.307Z,20.20
2018-06-17T00:33:50.961Z,20.20
2018-06-17T00:34:55.221Z,20.10
2018-06-17T00:35:58.855Z,20.10
2018-06-17T00:37:02.493Z,20.10
2018-06-17T00:39:10.811Z,20.20
2018-06-17T00:40:14.610Z,20.10
2018-06-17T00:41:18.334Z,20.10
2018-06-17T00:42:22.040Z,20.00
2018-06-17T00:43:25.660Z,20.00
2018-06-17T00:44:29.356Z,20.00
2018-06-17T00:45:33.111Z,20.00
2018-06-17T00:46:36.747Z,20.00
2018-06-17T00:47:40.383Z,20.00
2018-06-17T00:48:44.077Z,20.00
2018-06-17T00:49:47.752Z,20.00
2018-06-17T00:50:51.389Z,20.00
2018-06-17T00:51:55.112Z,20.00
2018-06-17T00:52:58.824Z,20.00
2018-06-17T00:54:02.560Z,20.00
2018-06-17T00:55:06.218Z,20.00
2018-06-17T00:56:09.905Z,20.00
2018-06-17T00:57:24.757Z,20.00
2018-06-17T00:58:28.426Z,20.10
2018-06-17T00:59:32.045Z,20.10
2018-06-17T01:00:35.729Z,20.10
2018-06-17T01:01:39.317Z,20.10
2018-06-17T01:02:42.997Z,20.10
2018-06-17T01:03:46.627Z,20.10
2018-06-17T01:04:50.334Z,20.10
2018-06-17T01:05:54.036Z,20.10
2018-06-17T01:06:57.735Z,20.10
2018-06-17T01:08:01.370Z,20.10
2018-06-17T01:09:06.614Z,20.10
2018-06-17T01:12:16.843Z,20.10
2018-06-17T01:13:20.473Z,20.20
2018-06-17T01:14:24.156Z,20.20
2018-06-17T01:15:27.840Z,20.20
2018-06-17T01:16:31.506Z,20.20
2018-06-17T01:17:35.156Z,20.20
2018-06-17T01:18:38.808Z,20.20
2018-06-17T01:19:42.548Z,20.20
2018-06-17T01:20:46.203Z,20.20
2018-06-17T01:22:53.159Z,20.20
2018-06-17T01:23:56.786Z,20.20
2018-06-17T01:26:07.582Z,20.20
2018-06-17T01:27:11.219Z,20.20
2018-06-17T01:28:14.893Z,20.20
2018-06-17T01:29:18.484Z,20.20
2018-06-17T01:30:22.122Z,20.10
2018-06-17T01:31:25.726Z,20.10
2018-06-17T01:32:29.340Z,20.10
2018-06-17T01:33:33.413Z,20.10
2018-06-17T01:34:37.066Z,20.00
2018-06-17T01:35:40.755Z,20.00
2018-06-17T01:36:44.427Z,20.00
2018-06-17T01:37:48.071Z,20.00
2018-06-17T01:38:51.839Z,20.00
2018-06-17T01:39:55.618Z,19.90
2018-06-17T01:40:59.659Z,19.80
2018-06-17T01:42:03.357Z,19.80
2018-06-17T01:44:10.263Z,19.80
2018-06-17T01:45:13.916Z,19.90
2018-06-17T01:46:17.626Z,19.80
2018-06-17T01:47:21.277Z,19.80
2018-06-17T01:49:28.400Z,19.80
2018-06-17T01:50:32.091Z,19.70
2018-06-17T01:51:35.754Z,19.80
2018-06-17T01:52:39.456Z,19.80
2018-06-17T01:53:43.080Z,19.80
2018-06-17T01:54:46.719Z,19.80
2018-06-17T01:55:50.413Z,19.80
2018-06-17T01:56:54.077Z,19.80
2018-06-17T01:57:57.681Z,19.80
2018-06-17T01:59:01.304Z,19.70
2018-06-17T02:01:08.337Z,19.60
2018-06-17T02:02:12.055Z,19.50
2018-06-17T02:03:20.988Z,19.50
2018-06-17T02:04:30.009Z,19.40
2018-06-17T02:07:40.689Z,19.40
2018-06-17T02:08:49.490Z,19.30
2018-06-17T02:09:58.444Z,19.30
2018-06-17T02:11:07.277Z,19.30
2018-06-17T02:12:17.818Z,19.20
2018-06-17T02:13:21.441Z,19.20
2018-06-17T02:14:30.428Z,19.20
2018-06-17T02:15:34.093Z,19.20
2018-06-17T02:16:37.807Z,19.10
2018-06-17T02:17:41.488Z,19.00
2018-06-17T02:18:45.202Z,19.10
2018-06-17T02:19:49.087Z,19.10
2018-06-17T02:20:52.700Z,19.10
2018-06-17T02:21:56.317Z,19.00
2018-06-17T02:23:00.029Z,19.10
2018-06-17T02:25:07.119Z,19.10
2018-06-17T02:26:10.783Z,19.10
2018-06-17T02:27:14.459Z,19.10
2018-06-17T02:28:18.155Z,19.10
2018-06-17T02:29:21.796Z,19.10
2018-06-17T02:30:25.453Z,19.10
2018-06-17T02:31:29.102Z,19.00
2018-06-17T02:32:32.749Z,19.10
2018-06-17T02:33:36.376Z,19.10
2018-06-17T02:34:40.022Z,19.10
2018-06-17T02:35:43.655Z,19.10
2018-06-17T02:36:47.298Z,19.20
2018-06-17T02:37:51.109Z,19.20
2018-06-17T02:38:54.798Z,19.00
2018-06-17T02:39:58.433Z,19.10
2018-06-17T02:41:02.127Z,19.00
2018-06-17T02:42:06.542Z,19.00
2018-06-17T02:43:10.234Z,19.00
2018-06-17T02:44:13.876Z,19.00
2018-06-17T02:45:22.874Z,18.90
2018-06-17T02:47:30.142Z,19.00
2018-06-17T02:48:38.969Z,19.00
2018-06-17T02:49:45.016Z,19.10
2018-06-17T02:50:53.890Z,19.00
2018-06-17T02:53:11.579Z,19.10
2018-06-17T02:54:20.424Z,19.00
2018-06-17T02:55:24.048Z,18.90
2018-06-17T02:56:27.774Z,18.90
2018-06-17T02:57:31.401Z,18.90
2018-06-17T02:58:35.066Z,18.90
2018-06-17T02:59:38.881Z,18.80
2018-06-17T03:00:42.583Z,18.80
2018-06-17T03:01:46.261Z,18.80
2018-06-17T03:02:49.915Z,18.80
2018-06-17T03:03:53.582Z,18.70
2018-06-17T03:04:57.173Z,18.80
2018-06-17T03:06:00.852Z,18.90
2018-06-17T03:07:04.580Z,18.90
2018-06-17T03:08:08.232Z,18.90
2018-06-17T03:09:12.020Z,18.90
2018-06-17T03:10:15.681Z,18.90
2018-06-17T03:11:19.369Z,18.80
2018-06-17T03:12:23.041Z,18.80
2018-06-17T03:13:26.672Z,18.80
2018-06-17T03:14:30.279Z,18.80
2018-06-17T03:15:33.901Z,18.80
2018-06-17T03:16:38.160Z,18.80
2018-06-17T03:17:41.808Z,18.80
2018-06-17T03:18:45.415Z,18.90
2018-06-17T03:19:49.025Z,18.90
2018-06-17T03:20:52.624Z,19.00
2018-06-17T03:21:56.250Z,19.00
2018-06-17T03:22:59.909Z,19.00
2018-06-17T03:24:03.561Z,19.00
2018-06-17T03:25:12.318Z,19.00
2018-06-17T03:26:21.289Z,19.00
2018-06-17T03:27:30.160Z,19.00
2018-06-17T03:28:39.080Z,19.00
2018-06-17T03:29:47.948Z,19.00
2018-06-17T03:30:56.778Z,19.00
2018-06-17T03:32:05.602Z,19.00
2018-06-17T03:33:14.593Z,19.00
2018-06-17T03:34:18.230Z,19.00
2018-06-17T03:35:27.065Z,19.00
2018-06-17T03:36:30.765Z,19.00
2018-06-17T03:37:34.366Z,19.00
2018-06-17T03:38:38.655Z,19.00
2018-06-17T03:39:42.261Z,19.10
2018-06-17T03:40:45.918Z,19.00
2018-06-17T03:41:49.557Z,19.00
2018-06-17T03:42:53.161Z,19.00
2018-06-17T03:43:56.790Z,19.00
2018-06-17T03:45:00.378Z,19.00
2018-06-17T03:47:07.358Z,18.90
2018-06-17T03:48:10.943Z,18.90
2018-06-17T03:49:14.655Z,18.80
2018-06-17T03:50:18.301Z,18.80
2018-06-17T03:51:22.068Z,18.70
2018-06-17T03:52:25.692Z,18.70
2018-06-17T03:53:29.357Z,18.60
2018-06-17T03:54:32.973Z,18.70
2018-06-17T03:55:36.733Z,18.70
2018-06-17T03:56:40.433Z,18.70
2018-06-17T03:57:44.096Z,18.70
2018-06-17T03:58:47.757Z,18.70
2018-06-17T03:59:51.377Z,18.70
2018-06-17T04:00:55.117Z,18.70
2018-06-17T04:01:58.723Z,18.80
2018-06-17T04:03:02.351Z,18.70
2018-06-17T04:04:06.048Z,18.70
2018-06-17T04:06:18.408Z,18.70
2018-06-17T04:07:22.065Z,18.70
2018-06-17T04:08:25.768Z,18.80
2018-06-17T04:09:29.453Z,18.80
2018-06-17T04:10:33.076Z,18.80
2018-06-17T04:11:36.966Z,18.80
2018-06-17T04:12:40.617Z,18.80
2018-06-17T04:14:47.548Z,18.80
2018-06-17T04:15:51.207Z,18.80
2018-06-17T04:16:54.842Z,18.80
2018-06-17T04:17:58.551Z,18.80
2018-06-17T04:19:02.167Z,18.70
2018-06-17T04:21:09.090Z,18.60
2018-06-17T04:22:12.956Z,18.60
2018-06-17T04:23:16.607Z,18.60
2018-06-17T04:24:20.271Z,18.60
2018-06-17T04:25:23.912Z,18.50
2018-06-17T04:26:27.529Z,18.50
2018-06-17T04:27:31.130Z,18.50
2018-06-17T04:28:34.820Z,18.60
2018-06-17T04:29:38.411Z,18.60
2018-06-17T04:30:42.049Z,18.60
2018-06-17T04:31:45.846Z,18.60
2018-06-17T04:32:49.480Z,18.60
2018-06-17T04:33:53.173Z,18.60
2018-06-17T04:34:56.764Z,18.60
2018-06-17T04:36:00.507Z,18.60
2018-06-17T04:37:04.124Z,18.60
2018-06-17T04:38:07.749Z,18.60
2018-06-17T04:39:11.397Z,18.60
2018-06-17T04:40:15.042Z,18.70
2018-06-17T04:41:18.723Z,18.70
2018-06-17T04:42:22.347Z,18.70
2018-06-17T04:43:25.929Z,18.70
2018-06-17T04:44:29.570Z,18.70
2018-06-17T04:46:36.541Z,18.70
2018-06-17T04:47:40.166Z,18.70
2018-06-17T04:48:43.800Z,18.60
2018-06-17T04:49:47.569Z,18.60
2018-06-17T04:50:51.212Z,18.60
2018-06-17T04:51:54.868Z,18.60
2018-06-17T04:52:58.468Z,18.60
2018-06-17T04:54:02.097Z,18.60
2018-06-17T04:55:05.802Z,18.50
2018-06-17T04:56:09.469Z,18.50
2018-06-17T04:57:13.088Z,18.50
2018-06-17T04:58:16.725Z,18.50
2018-06-17T04:59:20.357Z,18.50
2018-06-17T05:01:27.348Z,18.60
2018-06-17T05:02:30.970Z,18.60
2018-06-17T05:03:34.630Z,18.60
2018-06-17T05:04:38.275Z,18.70
2018-06-17T05:05:41.987Z,18.70
2018-06-17T05:07:49.046Z,18.70
2018-06-17T05:08:52.673Z,18.70
2018-06-17T05:10:59.692Z,18.80
2018-06-17T05:12:03.358Z,18.80
2018-06-17T05:13:06.996Z,18.80
2018-06-17T05:14:10.633Z,18.80
2018-06-17T05:15:14.269Z,18.80
2018-06-17T05:16:17.957Z,18.90
2018-06-17T05:17:21.590Z,18.80
2018-06-17T05:18:25.206Z,18.90
2018-06-17T05:19:28.805Z,18.80
2018-06-17T05:20:32.445Z,18.90
2018-06-17T05:21:36.109Z,18.90
2018-06-17T05:22:39.811Z,18.90
2018-06-17T05:23:43.455Z,18.90
2018-06-17T05:24:47.070Z,18.80
2018-06-17T05:25:50.663Z,18.80
2018-06-17T05:26:54.357Z,18.80
2018-06-17T05:27:57.982Z,18.70
2018-06-17T05:29:01.577Z,18.80
2018-06-17T05:30:05.611Z,18.80
2018-06-17T05:31:09.289Z,18.80
2018-06-17T05:32:13.003Z,18.80
2018-06-17T05:34:20.018Z,18.90
2018-06-17T05:35:23.686Z,18.90
2018-06-17T05:36:27.340Z,18.90
2018-06-17T05:37:31.027Z,18.90
2018-06-17T05:38:34.661Z,19.10
2018-06-17T05:39:38.257Z,19.10
2018-06-17T05:40:41.847Z,19.20
2018-06-17T05:41:45.728Z,19.20
2018-06-17T05:42:49.443Z,19.20
2018-06-17T05:43:53.102Z,19.30
2018-06-17T05:46:00.258Z,19.30
2018-06-17T05:47:04.143Z,19.30
2018-06-17T05:48:07.778Z,19.30
2018-06-17T05:49:11.413Z,19.30
2018-06-17T05:50:15.078Z,19.40
2018-06-17T05:51:18.770Z,19.40
2018-06-17T05:52:22.430Z,19.40
2018-06-17T05:53:26.242Z,19.30
2018-06-17T05:54:29.888Z,19.30
2018-06-17T05:55:33.511Z,19.30
2018-06-17T05:56:37.151Z,19.20
2018-06-17T05:57:40.805Z,19.10
2018-06-17T05:58:44.430Z,19.30
2018-06-17T05:59:48.138Z,19.40
2018-06-17T06:00:51.812Z,19.50
2018-06-17T06:01:55.517Z,19.60
2018-06-17T06:02:59.343Z,19.70
2018-06-17T06:04:03.097Z,19.80
2018-06-17T06:05:06.998Z,19.70
2018-06-17T06:06:10.663Z,19.60
2018-06-17T06:07:14.272Z,19.50
2018-06-17T06:08:17.909Z,19.40
2018-06-17T06:09:21.605Z,19.40
2018-06-17T06:10:25.287Z,19.40
2018-06-17T06:11:28.880Z,19.30
2018-06-17T06:12:32.517Z,19.40
2018-06-17T06:13:36.264Z,19.50
2018-06-17T06:14:39.901Z,19.50
2018-06-17T06:16:46.993Z,19.40
2018-06-17T06:17:50.597Z,19.50
2018-06-17T06:18:54.305Z,19.40
2018-06-17T06:19:57.893Z,19.40
2018-06-17T06:21:01.696Z,19.40
2018-06-17T06:22:05.393Z,19.30
2018-06-17T06:23:09.040Z,19.20
2018-06-17T06:24:12.708Z,19.10
2018-06-17T06:25:16.330Z,18.80
2018-06-17T06:26:20.026Z,18.90
2018-06-17T06:27:23.699Z,18.80
2018-06-17T06:28:27.352Z,18.90
2018-06-17T06:29:31.436Z,18.90
2018-06-17T06:30:35.138Z,18.80
2018-06-17T06:31:38.788Z,18.80
2018-06-17T06:33:46.395Z,18.80
2018-06-17T06:34:50.087Z,18.80
2018-06-17T06:35:53.895Z,19.00
2018-06-17T06:36:57.580Z,19.10
2018-06-17T06:38:01.218Z,19.20
2018-06-17T06:39:07.404Z,19.30
2018-06-17T06:41:14.394Z,19.30
2018-06-17T06:42:18.106Z,19.40
2018-06-17T06:43:21.797Z,19.40
2018-06-17T06:44:25.428Z,19.30
2018-06-17T06:45:29.161Z,19.30
2018-06-17T06:46:32.781Z,19.30
2018-06-17T06:47:36.515Z,19.40
2018-06-17T06:48:40.214Z,19.40
2018-06-17T06:49:43.844Z,19.40
2018-06-17T06:52:54.155Z,19.40
2018-06-17T06:54:04.052Z,19.40
2018-06-17T06:55:07.832Z,19.50
2018-06-17T06:57:14.747Z,19.60
2018-06-17T06:58:18.402Z,19.60
2018-06-17T07:00:25.451Z,19.80
2018-06-17T07:01:40.286Z,19.80
2018-06-17T07:02:55.023Z,19.70
2018-06-17T07:04:09.791Z,19.80
2018-06-17T07:05:24.598Z,19.80
2018-06-17T07:06:39.566Z,19.90
2018-06-17T07:07:54.478Z,20.00
2018-06-17T07:12:11.549Z,20.00
2018-06-17T07:13:15.205Z,20.00
2018-06-17T07:14:18.854Z,19.90
2018-06-17T07:16:36.101Z,19.70
2018-06-17T07:17:50.935Z,19.80
2018-06-17T07:18:54.619Z,19.70
2018-06-17T07:19:58.278Z,19.70
2018-06-17T07:21:01.994Z,19.70
2018-06-17T07:22:05.583Z,19.70
2018-06-17T07:23:09.510Z,19.70
2018-06-17T07:24:13.164Z,19.70
2018-06-17T07:25:34.681Z,19.70
2018-06-17T07:26:53.588Z,19.60
2018-06-17T07:30:04.354Z,19.50
2018-06-17T07:31:08.062Z,19.50
2018-06-17T07:32:11.727Z,19.70
2018-06-17T07:34:18.728Z,19.90
2018-06-17T07:35:22.359Z,20.00
2018-06-17T07:36:26.065Z,20.20
2018-06-17T07:37:29.666Z,20.30
2018-06-17T07:38:33.341Z,20.40
2018-06-17T07:41:46.000Z,20.50
2018-06-17T07:42:50.120Z,20.50
2018-06-17T07:43:53.933Z,20.60
2018-06-17T07:44:57.467Z,20.60
2018-06-17T07:46:01.117Z,20.70
2018-06-17T07:48:08.203Z,20.90
2018-06-17T07:49:36.152Z,20.80
2018-06-17T07:50:51.208Z,21.00
2018-06-17T07:52:07.567Z,20.90
2018-06-17T07:53:16.591Z,21.00
2018-06-17T07:54:20.295Z,21.10
2018-06-17T07:55:23.928Z,21.20
2018-06-17T07:56:27.548Z,21.10
2018-06-17T07:57:32.458Z,21.20
2018-06-17T07:58:36.108Z,21.10
2018-06-17T08:00:43.159Z,21.00
2018-06-17T08:01:46.788Z,20.80
2018-06-17T08:02:50.436Z,20.80
2018-06-17T08:03:54.207Z,20.80
2018-06-17T08:04:57.889Z,20.90
2018-06-17T08:06:01.603Z,20.90
2018-06-17T08:07:05.474Z,21.10
2018-06-17T08:08:09.171Z,21.20
2018-06-17T08:09:12.871Z,21.40
2018-06-17T08:10:16.537Z,21.40
2018-06-17T08:11:20.215Z,21.40
2018-06-17T08:13:27.217Z,21.30
2018-06-17T08:14:30.896Z,21.30
2018-06-17T08:15:34.594Z,21.10
2018-06-17T08:16:38.282Z,21.10
2018-06-17T08:17:41.958Z,21.10
2018-06-17T08:18:45.632Z,21.20
2018-06-17T08:19:49.268Z,21.40
2018-06-17T08:20:53.063Z,21.50
2018-06-17T08:21:57.596Z,21.70
2018-06-17T08:23:01.257Z,21.90
2018-06-17T08:24:05.018Z,21.90
2018-06-17T08:26:11.963Z,22.30
2018-06-17T08:27:15.610Z,22.50
2018-06-17T08:28:19.238Z,22.40
2018-06-17T08:29:22.972Z,22.20
2018-06-17T08:30:26.760Z,22.10
2018-06-17T08:31:30.405Z,22.10
2018-06-17T08:32:34.061Z,22.00
2018-06-17T08:33:37.717Z,21.90
2018-06-17T08:34:41.385Z,21.70
2018-06-17T08:35:45.052Z,21.70
2018-06-17T08:36:48.772Z,21.70
2018-06-17T08:37:52.394Z,21.80
2018-06-17T08:38:56.006Z,21.90
2018-06-17T08:39:59.704Z,22.00
2018-06-17T08:41:03.406Z,22.00
2018-06-17T08:42:07.303Z,22.20
2018-06-17T08:43:11.060Z,22.40
2018-06-17T08:44:15.438Z,22.60
2018-06-17T08:45:19.109Z,22.50
2018-06-17T08:46:22.757Z,22.60
2018-06-17T08:47:26.465Z,22.70
2018-06-17T08:48:30.167Z,22.90
2018-06-17T08:49:33.791Z,22.80
2018-06-17T08:50:37.412Z,22.70
2018-06-17T08:51:41.067Z,22.40
2018-06-17T08:52:44.729Z,22.20
2018-06-17T08:53:48.347Z,22.00
2018-06-17T08:54:51.983Z,21.80
2018-06-17T08:55:55.699Z,21.70
2018-06-17T08:56:59.353Z,21.60
2018-06-17T08:58:02.939Z,21.50
2018-06-17T08:59:06.770Z,21.50
2018-06-17T09:00:10.501Z,21.50
2018-06-17T09:01:14.154Z,21.40
2018-06-17T09:02:17.816Z,21.40
2018-06-17T09:03:21.401Z,21.30
2018-06-17T09:04:25.003Z,21.40
2018-06-17T09:05:28.766Z,21.50
2018-06-17T09:06:32.395Z,21.50
2018-06-17T09:07:36.042Z,21.30
2018-06-17T09:08:39.756Z,21.30
2018-06-17T09:09:43.437Z,21.40
2018-06-17T09:10:47.161Z,21.40
2018-06-17T09:11:50.937Z,21.50
2018-06-17T09:12:54.622Z,21.60
2018-06-17T09:13:58.241Z,21.60
2018-06-17T09:15:01.909Z,21.80
2018-06-17T09:16:05.650Z,21.90
2018-06-17T09:17:09.344Z,21.70
2018-06-17T09:18:13.009Z,21.60
2018-06-17T09:19:16.727Z,21.60
2018-06-17T09:20:20.317Z,21.40
2018-06-17T09:21:23.969Z,21.30
2018-06-17T09:22:27.555Z,21.30
2018-06-17T09:23:31.200Z,21.20
2018-06-17T09:24:34.874Z,21.20
2018-06-17T09:25:38.524Z,21.30
2018-06-17T09:26:42.150Z,21.30
2018-06-17T09:27:45.789Z,21.30
2018-06-17T09:28:49.417Z,21.30
2018-06-17T09:29:53.063Z,21.30
2018-06-17T09:30:56.744Z,21.40
2018-06-17T09:32:00.553Z,21.50
2018-06-17T09:33:04.140Z,21.60
2018-06-17T09:34:07.774Z,21.70
2018-06-17T09:36:14.704Z,22.00
2018-06-17T09:37:18.492Z,22.20
2018-06-17T09:38:22.187Z,22.30
2018-06-17T09:39:25.846Z,22.40
2018-06-17T09:40:29.502Z,22.40
2018-06-17T09:41:33.304Z,22.60
2018-06-17T09:42:37.009Z,22.60
2018-06-17T09:43:40.682Z,22.70
2018-06-17T09:44:44.343Z,22.70
2018-06-17T09:45:48.020Z,22.70
2018-06-17T09:46:51.670Z,22.80
2018-06-17T09:47:55.318Z,22.80
2018-06-17T09:48:58.985Z,22.80
2018-06-17T09:50:02.719Z,22.70
2018-06-17T09:51:06.342Z,22.70
2018-06-17T09:52:09.974Z,22.60
2018-06-17T09:53:13.669Z,22.50
2018-06-17T09:54:17.246Z,22.50
2018-06-17T09:55:20.937Z,22.50
2018-06-17T09:56:24.568Z,22.50
2018-06-17T09:57:28.168Z,22.50
2018-06-17T09:58:31.860Z,22.40
2018-06-17T09:59:35.485Z,22.50
2018-06-17T10:00:39.090Z,22.30
2018-06-17T10:01:42.803Z,22.40
2018-06-17T10:02:46.416Z,22.40
2018-06-17T10:03:50.013Z,22.40
2018-06-17T10:04:53.613Z,22.50
2018-06-17T10:05:57.360Z,22.50
2018-06-17T10:07:01.054Z,22.70
2018-06-17T10:08:04.733Z,22.60
2018-06-17T10:09:09.832Z,22.50
2018-06-17T10:10:53.747Z,22.50
2018-06-17T10:11:57.339Z,22.50
2018-06-17T10:13:00.988Z,22.50
2018-06-17T10:14:04.803Z,22.60
2018-06-17T10:15:08.429Z,22.60
2018-06-17T10:16:12.536Z,22.60
2018-06-17T10:17:16.125Z,22.80
2018-06-17T10:18:20.319Z,22.80
2018-06-17T10:19:24.093Z,22.70
2018-06-17T10:20:27.722Z,22.60
2018-06-17T10:21:31.419Z,22.70
2018-06-17T10:22:35.211Z,22.90
2018-06-17T10:23:38.868Z,23.10
2018-06-17T10:24:42.533Z,23.30
2018-06-17T10:25:46.232Z,23.40
2018-06-17T10:26:49.858Z,23.40
2018-06-17T10:27:53.491Z,23.60
2018-06-17T10:28:57.119Z,23.80
2018-06-17T10:30:00.779Z,23.90
2018-06-17T10:31:05.677Z,23.90
2018-06-17T10:32:09.352Z,23.90
2018-06-17T10:33:13.598Z,23.90
2018-06-17T10:34:17.298Z,23.90
2018-06-17T10:35:20.935Z,23.90
2018-06-17T10:36:24.513Z,23.70
2018-06-17T10:37:28.163Z,23.60
2018-06-17T10:39:35.193Z,23.60
2018-06-17T10:40:38.933Z,23.50
2018-06-17T10:42:47.194Z,24.00
2018-06-17T10:43:50.869Z,24.00
2018-06-17T10:44:54.499Z,24.10
2018-06-17T10:45:58.273Z,24.20
2018-06-17T10:47:01.919Z,24.10
2018-06-17T10:48:05.723Z,23.90
2018-06-17T10:49:09.366Z,23.90
2018-06-17T10:50:13.033Z,23.80
2018-06-17T10:51:16.710Z,23.80
2018-06-17T10:52:20.396Z,23.60
2018-06-17T10:53:24.033Z,23.30
2018-06-17T10:54:27.674Z,23.20
2018-06-17T10:55:31.327Z,23.00
2018-06-17T10:56:34.925Z,23.00
2018-06-17T10:57:38.786Z,23.00
2018-06-17T10:58:42.390Z,22.90
2018-06-17T10:59:46.018Z,23.00
2018-06-17T11:00:49.686Z,23.10
2018-06-17T11:01:53.329Z,23.10
2018-06-17T11:02:56.935Z,23.10
2018-06-17T11:04:00.542Z,23.10
2018-06-17T11:05:04.535Z,23.10
2018-06-17T11:06:08.291Z,23.30
2018-06-17T11:07:11.929Z,23.50
2018-06-17T11:08:15.585Z,23.60
2018-06-17T11:09:19.217Z,23.60
2018-06-17T11:10:22.818Z,23.60
2018-06-17T11:11:26.417Z,23.60
2018-06-17T11:12:30.102Z,23.50
2018-06-17T11:13:33.778Z,23.70
2018-06-17T11:14:37.400Z,23.80
2018-06-17T11:15:41.051Z,23.80
2018-06-17T11:16:44.703Z,23.80
2018-06-17T11:17:48.378Z,23.60
2018-06-17T11:18:52.028Z,23.60
2018-06-17T11:19:58.475Z,23.70
2018-06-17T11:21:02.033Z,23.60
2018-06-17T11:22:05.690Z,23.50
2018-06-17T11:23:09.297Z,23.70
2018-06-17T11:24:12.957Z,23.60
2018-06-17T11:25:16.712Z,23.70
2018-06-17T11:27:23.733Z,23.90
2018-06-17T11:28:27.433Z,23.90
2018-06-17T11:29:31.154Z,24.10
2018-06-17T11:30:34.826Z,24.30
2018-06-17T11:31:38.459Z,24.40
2018-06-17T11:32:42.094Z,24.40
2018-06-17T11:33:45.749Z,24.50
2018-06-17T11:34:49.414Z,24.70
2018-06-17T11:35:53.044Z,24.60
2018-06-17T11:36:56.678Z,24.60
2018-06-17T11:38:00.286Z,24.40
2018-06-17T11:39:04.954Z,24.20
2018-06-17T11:41:11.824Z,24.00
2018-06-17T11:42:15.793Z,24.00
2018-06-17T11:43:19.420Z,23.90
2018-06-17T11:45:26.480Z,24.30
2018-06-17T11:46:30.105Z,24.50
2018-06-17T11:47:33.773Z,24.80
2018-06-17T11:48:37.459Z,24.80
2018-06-17T11:50:44.424Z,24.60
2018-06-17T11:51:48.485Z,24.50
2018-06-17T11:52:52.120Z,24.30
2018-06-17T11:53:55.793Z,24.10
2018-06-17T11:54:59.379Z,24.20
2018-06-17T11:56:03.044Z,24.40
2018-06-17T11:57:06.714Z,24.50
2018-06-17T11:59:13.707Z,24.80
2018-06-17T12:00:17.389Z,24.80
2018-06-17T12:01:20.982Z,24.70
2018-06-17T12:02:24.625Z,24.50
2018-06-17T12:03:28.278Z,24.30
2018-06-17T12:04:31.931Z,24.10
2018-06-17T12:05:35.557Z,24.00
2018-06-17T12:06:39.226Z,23.90
2018-06-17T12:08:46.165Z,24.00
2018-06-17T12:09:49.741Z,24.20
2018-06-17T12:10:53.352Z,24.20
2018-06-17T12:11:56.949Z,24.30
2018-06-17T12:13:00.629Z,24.40
2018-06-17T12:14:04.468Z,24.50
2018-06-17T12:15:08.143Z,24.80
2018-06-17T12:16:11.895Z,24.90
2018-06-17T12:17:15.524Z,25.10
2018-06-17T12:18:19.261Z,25.10
2018-06-17T12:19:22.951Z,24.90
2018-06-17T12:20:26.603Z,24.80
2018-06-17T12:21:30.467Z,24.80
2018-06-17T12:22:34.148Z,24.80
2018-06-17T12:23:37.771Z,24.70
2018-06-17T12:24:41.480Z,24.70
2018-06-17T12:25:45.110Z,24.90
2018-06-17T12:26:48.746Z,24.70
2018-06-17T12:27:52.351Z,24.40
2018-06-17T12:28:55.998Z,24.40
2018-06-17T12:29:59.679Z,24.40
2018-06-17T12:31:03.384Z,24.30
2018-06-17T12:32:07.001Z,24.20
2018-06-17T12:33:10.681Z,24.10
2018-06-17T12:34:14.370Z,24.00
2018-06-17T12:35:18.043Z,24.10
2018-06-17T12:36:21.801Z,24.10
2018-06-17T12:38:28.928Z,24.20
2018-06-17T12:39:32.549Z,24.20
2018-06-17T12:40:36.160Z,24.10
2018-06-17T12:41:40.001Z,24.10
2018-06-17T12:42:43.642Z,24.00
2018-06-17T12:43:47.299Z,23.90
2018-06-17T12:44:51.023Z,24.00
2018-06-17T12:45:54.671Z,24.10
2018-06-17T12:46:58.373Z,24.20
2018-06-17T12:48:02.038Z,24.10
2018-06-17T12:49:05.815Z,23.90
2018-06-17T12:50:09.438Z,23.90
2018-06-17T12:51:13.047Z,24.00
2018-06-17T12:52:16.719Z,24.20
2018-06-17T12:53:20.336Z,24.20
2018-06-17T12:54:23.967Z,24.30
2018-06-17T12:55:27.701Z,24.20
2018-06-17T12:56:31.303Z,24.40
2018-06-17T12:57:34.909Z,24.60
2018-06-17T12:58:38.569Z,24.80
2018-06-17T12:59:42.165Z,25.00
2018-06-17T13:00:45.737Z,25.10
2018-06-17T13:01:49.362Z,25.00
2018-06-17T13:02:53.036Z,25.00
2018-06-17T13:04:59.984Z,25.00
2018-06-17T13:06:03.645Z,24.90
2018-06-17T13:07:07.285Z,25.00
2018-06-17T13:08:11.038Z,24.90
2018-06-17T13:09:14.711Z,24.80
2018-06-17T13:10:18.377Z,24.70
2018-06-17T13:11:22.066Z,24.60
2018-06-17T13:12:25.745Z,24.70
2018-06-17T13:13:29.363Z,24.70
2018-06-17T13:14:33.003Z,24.70
2018-06-17T13:15:36.598Z,24.60
2018-06-17T13:16:40.239Z,24.70
2018-06-17T13:17:43.869Z,24.80
2018-06-17T13:18:54.048Z,24.90
2018-06-17T13:21:00.970Z,24.70
2018-06-17T13:22:04.596Z,24.40
2018-06-17T13:23:08.251Z,24.10
2018-06-17T13:24:11.833Z,24.10
2018-06-17T13:25:15.488Z,24.10
2018-06-17T13:28:25.771Z,24.10
2018-06-17T13:29:29.568Z,24.20
2018-06-17T13:30:33.165Z,24.30
2018-06-17T13:31:36.744Z,24.30
2018-06-17T13:34:47.008Z,24.40
2018-06-17T13:35:50.645Z,24.50
2018-06-17T13:36:54.326Z,24.50
2018-06-17T13:37:57.988Z,24.50
2018-06-17T13:39:01.675Z,24.50
2018-06-17T13:40:05.932Z,24.40
2018-06-17T13:41:09.589Z,24.40
2018-06-17T13:42:13.171Z,24.50
2018-06-17T13:43:16.789Z,24.40
2018-06-17T13:44:20.507Z,24.30
2018-06-17T13:45:24.150Z,24.20
2018-06-17T13:46:27.693Z,24.00
2018-06-17T13:47:31.544Z,24.00
2018-06-17T13:48:35.168Z,24.00
2018-06-17T13:49:38.791Z,23.90
2018-06-17T13:50:42.409Z,23.90
2018-06-17T13:51:46.013Z,23.80
2018-06-17T13:52:49.632Z,23.80
2018-06-17T13:53:53.281Z,23.80
2018-06-17T13:54:56.952Z,23.90
2018-06-17T13:56:00.569Z,24.00
2018-06-17T13:57:04.222Z,24.10
2018-06-17T13:58:07.807Z,24.10
2018-06-17T13:59:11.432Z,24.00
2018-06-17T14:00:15.218Z,24.10
2018-06-17T14:01:18.952Z,24.30
2018-06-17T14:02:22.534Z,24.20
2018-06-17T14:03:29.129Z,24.40
2018-06-17T14:04:32.750Z,24.40
2018-06-17T14:06:39.724Z,24.70
2018-06-17T14:07:43.375Z,24.70
2018-06-17T14:08:47.058Z,24.70
2018-06-17T14:09:50.672Z,24.70
2018-06-17T14:10:54.526Z,24.80
2018-06-17T14:11:58.128Z,24.70
2018-06-17T14:13:01.752Z,24.60
2018-06-17T14:14:05.500Z,24.70
2018-06-17T14:15:09.540Z,24.80
2018-06-17T14:16:13.302Z,24.90
2018-06-17T14:17:16.956Z,24.90
2018-06-17T14:18:20.567Z,25.00
2018-06-17T14:19:24.333Z,24.90
2018-06-17T14:20:27.944Z,24.90
2018-06-17T14:21:31.577Z,25.00
2018-06-17T14:22:35.178Z,25.10
2018-06-17T14:23:38.889Z,25.30
2018-06-17T14:24:42.520Z,25.20
2018-06-17T14:26:49.399Z,25.00
2018-06-17T14:27:53.072Z,25.10
2018-06-17T14:28:56.694Z,25.00
2018-06-17T14:30:00.308Z,25.00
2018-06-17T14:31:03.908Z,24.80
2018-06-17T14:32:07.502Z,24.80
2018-06-17T14:33:11.118Z,24.90
2018-06-17T14:34:14.750Z,25.00
2018-06-17T14:35:18.373Z,25.00
2018-06-17T14:36:22.120Z,25.10
2018-06-17T14:38:28.988Z,25.20
2018-06-17T14:39:32.607Z,25.00
2018-06-17T14:40:40.440Z,24.70
2018-06-17T14:41:44.145Z,24.30
2018-06-17T14:42:53.006Z,24.10
2018-06-17T14:44:01.850Z,24.00
2018-06-17T14:45:10.925Z,23.90
2018-06-17T14:46:19.915Z,23.70
2018-06-17T14:47:28.922Z,23.70
2018-06-17T14:48:37.768Z,23.80
2018-06-17T14:49:46.636Z,23.90
2018-06-17T14:50:55.639Z,23.80
2018-06-17T14:52:04.641Z,23.90
2018-06-17T14:53:08.369Z,23.80
2018-06-17T14:54:12.014Z,24.00